Terminal Aerodrome Forecast
Issued by NWS

Home | Current Version | Previous Version | Graphics & Text | Print | Product List | Glossary On
Versions: 1 2 3 4 5 6 7 8 9 10 11 12 13 14 15 16 17 18 19 20 21 22 23
012
FTUS42 KMHX 040545
TAFPGV
TAF
KPGV 040545Z 0406/0506 22003KT 6SM BR VCSH SCT005 BKN015
     FM041300 00000KT P6SM VCSH BKN025
     FM041500 27007KT P6SM BKN040
     FM041700 27007KT P6SM SCT040
     FM050000 00000KT P6SM SCT250
      AMD LTD TO CLD VIS AND WIND=

USA.gov is the U.S. government's official web portal to all federal, state and local government web resources and services.